sensor_id;sensor_type;location;lat;lon;timestamp;temperature;humidity
15705;DHT22;7952;48.396;12.806;2022-11-25T00:01:24;7.00;62.10
15705;DHT22;7952;48.396;12.806;2022-11-25T00:03:51;7.00;62.10
15705;DHT22;7952;48.396;12.806;2022-11-25T00:06:28;7.00;62.20
15705;DHT22;7952;48.396;12.806;2022-11-25T00:09:00;7.00;62.20
15705;DHT22;7952;48.396;12.806;2022-11-25T00:11:26;7.00;62.10
15705;DHT22;7952;48.396;12.806;2022-11-25T00:13:53;7.00;62.10
15705;DHT22;7952;48.396;12.806;2022-11-25T00:16:21;7.00;62.00
15705;DHT22;7952;48.396;12.806;2022-11-25T00:18:51;7.00;62.60
15705;DHT22;7952;48.396;12.806;2022-11-25T00:21:21;7.00;62.00
15705;DHT22;7952;48.396;12.806;2022-11-25T00:24:01;7.00;62.00
15705;DHT22;7952;48.396;12.806;2022-11-25T00:26:29;7.10;62.10
15705;DHT22;7952;48.396;12.806;2022-11-25T00:28:58;7.00;62.00
15705;DHT22;7952;48.396;12.806;2022-11-25T00:31:26;7.10;62.10
15705;DHT22;7952;48.396;12.806;2022-11-25T00:33:52;7.10;62.00
15705;DHT22;7952;48.396;12.806;2022-11-25T00:36:29;7.10;62.00
15705;DHT22;7952;48.396;12.806;2022-11-25T00:39:01;7.10;62.00
15705;DHT22;7952;48.396;12.806;2022-11-25T00:41:28;7.10;62.00
15705;DHT22;7952;48.396;12.806;2022-11-25T00:44:17;7.10;62.00
15705;DHT22;7952;48.396;12.806;2022-11-25T00:49:36;7.00;61.80
15705;DHT22;7952;48.396;12.806;2022-11-25T00:52:03;7.00;61.80
15705;DHT22;7952;48.396;12.806;2022-11-25T00:54:29;7.00;61.80
15705;DHT22;7952;48.396;12.806;2022-11-25T00:56:56;6.90;61.70
15705;DHT22;7952;48.396;12.806;2022-11-25T00:59:21;6.90;61.80
15705;DHT22;7952;48.396;12.806;2022-11-25T01:01:47;6.80;61.80
15705;DHT22;7952;48.396;12.806;2022-11-25T01:04:13;6.80;61.80
15705;DHT22;7952;48.396;12.806;2022-11-25T01:06:39;6.70;61.80
15705;DHT22;7952;48.396;12.806;2022-11-25T01:09:07;6.70;61.90
15705;DHT22;7952;48.396;12.806;2022-11-25T01:11:33;6.60;61.90
15705;DHT22;7952;48.396;12.806;2022-11-25T01:13:58;6.60;61.90
15705;DHT22;7952;48.396;12.806;2022-11-25T01:16:24;6.60;61.90
15705;DHT22;7952;48.396;12.806;2022-11-25T01:18:50;6.50;61.90
15705;DHT22;7952;48.396;12.806;2022-11-25T01:23:43;6.50;62.10
15705;DHT22;7952;48.396;12.806;2022-11-25T01:26:11;6.50;62.10
15705;DHT22;7952;48.396;12.806;2022-11-25T01:28:37;6.40;62.00
15705;DHT22;7952;48.396;12.806;2022-11-25T01:31:06;6.40;62.00
15705;DHT22;7952;48.396;12.806;2022-11-25T01:33:32;6.40;62.10
15705;DHT22;7952;48.396;12.806;2022-11-25T01:36:03;6.40;62.10
15705;DHT22;7952;48.396;12.806;2022-11-25T01:38:29;6.40;62.10
15705;DHT22;7952;48.396;12.806;2022-11-25T01:40:56;6.40;62.10
15705;DHT22;7952;48.396;12.806;2022-11-25T01:43:21;6.30;62.10
15705;DHT22;7952;48.396;12.806;2022-11-25T01:45:47;6.40;62.20
15705;DHT22;7952;48.396;12.806;2022-11-25T01:48:24;6.30;62.10
15705;DHT22;7952;48.396;12.806;2022-11-25T01:50:52;6.30;62.10
15705;DHT22;7952;48.396;12.806;2022-11-25T01:53:18;6.30;62.70
15705;DHT22;7952;48.396;12.806;2022-11-25T01:55:54;6.30;62.10
15705;DHT22;7952;48.396;12.806;2022-11-25T01:58:28;6.20;62.00
15705;DHT22;7952;48.396;12.806;2022-11-25T02:00:55;6.20;62.00
15705;DHT22;7952;48.396;12.806;2022-11-25T02:03:35;6.20;62.00
15705;DHT22;7952;48.396;12.806;2022-11-25T02:06:16;6.10;62.00
15705;DHT22;7952;48.396;12.806;2022-11-25T02:08:47;6.10;62.10
15705;DHT22;7952;48.396;12.806;2022-11-25T02:11:15;6.10;62.10
15705;DHT22;7952;48.396;12.806;2022-11-25T02:13:41;6.10;62.10
15705;DHT22;7952;48.396;12.806;2022-11-25T02:16:07;6.00;62.10
15705;DHT22;7952;48.396;12.806;2022-11-25T02:18:33;6.00;62.10
15705;DHT22;7952;48.396;12.806;2022-11-25T02:20:59;6.00;62.10
15705;DHT22;7952;48.396;12.806;2022-11-25T02:26:02;6.00;62.00
15705;DHT22;7952;48.396;12.806;2022-11-25T02:28:29;5.90;61.90
15705;DHT22;7952;48.396;12.806;2022-11-25T02:30:55;5.90;61.90
15705;DHT22;7952;48.396;12.806;2022-11-25T02:33:21;5.80;61.80
15705;DHT22;7952;48.396;12.806;2022-11-25T02:35:54;5.80;61.90
15705;DHT22;7952;48.396;12.806;2022-11-25T02:38:25;5.80;61.90
15705;DHT22;7952;48.396;12.806;2022-11-25T02:41:07;5.70;61.90
15705;DHT22;7952;48.396;12.806;2022-11-25T02:43:33;5.70;61.90
15705;DHT22;7952;48.396;12.806;2022-11-25T02:46:03;5.70;61.90
15705;DHT22;7952;48.396;12.806;2022-11-25T02:48:31;5.70;62.00
15705;DHT22;7952;48.396;12.806;2022-11-25T02:50:57;5.60;62.00
15705;DHT22;7952;48.396;12.806;2022-11-25T02:53:23;5.60;62.00
15705;DHT22;7952;48.396;12.806;2022-11-25T02:55:49;5.60;62.00
15705;DHT22;7952;48.396;12.806;2022-11-25T02:58:15;5.50;62.00
15705;DHT22;7952;48.396;12.806;2022-11-25T03:00:43;5.50;62.00
15705;DHT22;7952;48.396;12.806;2022-11-25T03:03:09;5.50;62.10
15705;DHT22;7952;48.396;12.806;2022-11-25T03:05:35;5.40;62.10
15705;DHT22;7952;48.396;12.806;2022-11-25T03:08:01;5.40;62.10
15705;DHT22;7952;48.396;12.806;2022-11-25T03:10:26;5.40;62.10
15705;DHT22;7952;48.396;12.806;2022-11-25T03:12:52;5.40;62.20
15705;DHT22;7952;48.396;12.806;2022-11-25T03:15:18;5.40;62.20
15705;DHT22;7952;48.396;12.806;2022-11-25T03:17:44;5.40;62.20
15705;DHT22;7952;48.396;12.806;2022-11-25T03:20:10;5.40;62.20
15705;DHT22;7952;48.396;12.806;2022-11-25T03:22:37;5.40;62.90
15705;DHT22;7952;48.396;12.806;2022-11-25T03:25:04;5.40;62.30
15705;DHT22;7952;48.396;12.806;2022-11-25T03:27:29;5.40;62.30
15705;DHT22;7952;48.396;12.806;2022-11-25T03:29:55;5.40;62.20
15705;DHT22;7952;48.396;12.806;2022-11-25T03:32:21;5.40;62.30
15705;DHT22;7952;48.396;12.806;2022-11-25T03:34:46;5.40;62.20
15705;DHT22;7952;48.396;12.806;2022-11-25T03:37:12;5.40;62.20
15705;DHT22;7952;48.396;12.806;2022-11-25T03:39:37;5.40;62.20
15705;DHT22;7952;48.396;12.806;2022-11-25T03:42:03;5.30;62.10
15705;DHT22;7952;48.396;12.806;2022-11-25T03:44:28;5.30;62.00
15705;DHT22;7952;48.396;12.806;2022-11-25T03:46:54;5.30;62.10
15705;DHT22;7952;48.396;12.806;2022-11-25T03:49:19;5.30;62.10
15705;DHT22;7952;48.396;12.806;2022-11-25T03:51:46;5.30;62.10
15705;DHT22;7952;48.396;12.806;2022-11-25T03:54:12;5.30;62.00
15705;DHT22;7952;48.396;12.806;2022-11-25T03:56:37;5.30;62.10
15705;DHT22;7952;48.396;12.806;2022-11-25T03:59:03;5.20;62.10
15705;DHT22;7952;48.396;12.806;2022-11-25T04:01:28;5.20;62.10
15705;DHT22;7952;48.396;12.806;2022-11-25T04:03:54;5.20;62.00
15705;DHT22;7952;48.396;12.806;2022-11-25T04:06:20;5.20;62.00
15705;DHT22;7952;48.396;12.806;2022-11-25T04:08:48;5.20;62.00
15705;DHT22;7952;48.396;12.806;2022-11-25T04:11:13;5.10;61.90
15705;DHT22;7952;48.396;12.806;2022-11-25T04:13:39;5.10;61.90
15705;DHT22;7952;48.396;12.806;2022-11-25T04:16:05;5.00;61.90
15705;DHT22;7952;48.396;12.806;2022-11-25T04:18:30;5.00;62.00
15705;DHT22;7952;48.396;12.806;2022-11-25T04:20:56;4.90;61.90
15705;DHT22;7952;48.396;12.806;2022-11-25T04:23:22;4.90;62.00
15705;DHT22;7952;48.396;12.806;2022-11-25T04:25:49;4.90;62.00
15705;DHT22;7952;48.396;12.806;2022-11-25T04:28:15;4.90;62.10
15705;DHT22;7952;48.396;12.806;2022-11-25T04:30:40;4.90;62.20
15705;DHT22;7952;48.396;12.806;2022-11-25T04:33:06;4.90;62.20
15705;DHT22;7952;48.396;12.806;2022-11-25T04:35:32;4.90;62.20
15705;DHT22;7952;48.396;12.806;2022-11-25T04:37:57;4.90;62.10
15705;DHT22;7952;48.396;12.806;2022-11-25T04:40:23;4.90;62.00
15705;DHT22;7952;48.396;12.806;2022-11-25T04:42:48;4.90;62.00
15705;DHT22;7952;48.396;12.806;2022-11-25T04:45:16;4.90;61.90
15705;DHT22;7952;48.396;12.806;2022-11-25T04:47:43;4.80;61.70
15705;DHT22;7952;48.396;12.806;2022-11-25T04:50:13;4.70;61.60
15705;DHT22;7952;48.396;12.806;2022-11-25T04:52:39;4.70;61.70
15705;DHT22;7952;48.396;12.806;2022-11-25T04:55:05;4.60;61.70
15705;DHT22;7952;48.396;12.806;2022-11-25T04:57:31;4.60;61.80
15705;DHT22;7952;48.396;12.806;2022-11-25T04:59:56;4.50;61.70
15705;DHT22;7952;48.396;12.806;2022-11-25T05:02:24;4.50;61.90
15705;DHT22;7952;48.396;12.806;2022-11-25T05:04:51;4.40;61.80
15705;DHT22;7952;48.396;12.806;2022-11-25T05:07:18;4.40;61.90
15705;DHT22;7952;48.396;12.806;2022-11-25T05:09:45;4.30;61.90
15705;DHT22;7952;48.396;12.806;2022-11-25T05:12:20;4.30;62.00
15705;DHT22;7952;48.396;12.806;2022-11-25T05:14:47;4.30;62.00
15705;DHT22;7952;48.396;12.806;2022-11-25T05:17:18;4.30;62.10
15705;DHT22;7952;48.396;12.806;2022-11-25T05:19:44;4.30;62.10
15705;DHT22;7952;48.396;12.806;2022-11-25T05:22:15;4.30;62.10
15705;DHT22;7952;48.396;12.806;2022-11-25T05:24:41;4.30;62.10
15705;DHT22;7952;48.396;12.806;2022-11-25T05:27:07;4.20;62.10
15705;DHT22;7952;48.396;12.806;2022-11-25T05:29:33;4.20;62.10
15705;DHT22;7952;48.396;12.806;2022-11-25T05:31:59;4.20;62.20
15705;DHT22;7952;48.396;12.806;2022-11-25T05:34:24;4.20;62.20
15705;DHT22;7952;48.396;12.806;2022-11-25T05:36:50;4.20;62.20
15705;DHT22;7952;48.396;12.806;2022-11-25T05:39:16;4.20;62.30
15705;DHT22;7952;48.396;12.806;2022-11-25T05:41:42;4.20;62.20
15705;DHT22;7952;48.396;12.806;2022-11-25T05:44:07;4.20;62.20
15705;DHT22;7952;48.396;12.806;2022-11-25T05:46:33;4.20;62.10
15705;DHT22;7952;48.396;12.806;2022-11-25T05:48:59;4.20;62.20
15705;DHT22;7952;48.396;12.806;2022-11-25T05:51:26;4.20;62.20
15705;DHT22;7952;48.396;12.806;2022-11-25T05:53:53;4.10;62.00
15705;DHT22;7952;48.396;12.806;2022-11-25T05:56:18;4.10;62.00
15705;DHT22;7952;48.396;12.806;2022-11-25T05:58:44;4.10;62.00
15705;DHT22;7952;48.396;12.806;2022-11-25T06:01:11;4.10;62.00
15705;DHT22;7952;48.396;12.806;2022-11-25T06:03:37;4.00;61.90
15705;DHT22;7952;48.396;12.806;2022-11-25T06:06:03;4.00;62.00
15705;DHT22;7952;48.396;12.806;2022-11-25T06:08:29;4.00;62.00
15705;DHT22;7952;48.396;12.806;2022-11-25T06:10:55;4.00;62.00
15705;DHT22;7952;48.396;12.806;2022-11-25T06:13:21;4.00;62.00
15705;DHT22;7952;48.396;12.806;2022-11-25T06:15:48;4.00;62.10
15705;DHT22;7952;48.396;12.806;2022-11-25T06:18:16;4.00;62.10
15705;DHT22;7952;48.396;12.806;2022-11-25T06:20:42;4.00;62.20
15705;DHT22;7952;48.396;12.806;2022-11-25T06:23:08;4.00;62.10
15705;DHT22;7952;48.396;12.806;2022-11-25T06:25:34;4.00;62.10
15705;DHT22;7952;48.396;12.806;2022-11-25T06:28:01;4.00;62.10
15705;DHT22;7952;48.396;12.806;2022-11-25T06:30:27;4.10;62.20
15705;DHT22;7952;48.396;12.806;2022-11-25T06:32:53;4.10;62.20
15705;DHT22;7952;48.396;12.806;2022-11-25T06:35:19;4.10;62.10
15705;DHT22;7952;48.396;12.806;2022-11-25T06:37:45;4.10;62.00
15705;DHT22;7952;48.396;12.806;2022-11-25T06:40:10;4.10;62.10
15705;DHT22;7952;48.396;12.806;2022-11-25T06:42:39;4.10;62.00
15705;DHT22;7952;48.396;12.806;2022-11-25T06:45:08;4.20;62.00
15705;DHT22;7952;48.396;12.806;2022-11-25T06:47:33;4.20;61.90
15705;DHT22;7952;48.396;12.806;2022-11-25T06:49:59;4.20;62.00
15705;DHT22;7952;48.396;12.806;2022-11-25T06:52:24;4.20;62.10
15705;DHT22;7952;48.396;12.806;2022-11-25T06:54:50;4.30;62.20
15705;DHT22;7952;48.396;12.806;2022-11-25T06:57:17;4.40;62.30
15705;DHT22;7952;48.396;12.806;2022-11-25T06:59:43;4.50;62.50
15705;DHT22;7952;48.396;12.806;2022-11-25T07:02:11;4.60;63.00
15705;DHT22;7952;48.396;12.806;2022-11-25T07:04:37;4.80;62.90
15705;DHT22;7952;48.396;12.806;2022-11-25T07:07:02;4.90;62.60
15705;DHT22;7952;48.396;12.806;2022-11-25T07:09:28;5.00;62.50
15705;DHT22;7952;48.396;12.806;2022-11-25T07:11:54;5.00;62.20
15705;DHT22;7952;48.396;12.806;2022-11-25T07:14:19;5.10;62.30
15705;DHT22;7952;48.396;12.806;2022-11-25T07:16:45;5.10;62.20
15705;DHT22;7952;48.396;12.806;2022-11-25T07:19:12;5.20;62.30
15705;DHT22;7952;48.396;12.806;2022-11-25T07:21:39;5.20;62.20
15705;DHT22;7952;48.396;12.806;2022-11-25T07:24:05;5.30;62.20
15705;DHT22;7952;48.396;12.806;2022-11-25T07:26:34;5.40;62.20
15705;DHT22;7952;48.396;12.806;2022-11-25T07:29:02;5.40;62.10
15705;DHT22;7952;48.396;12.806;2022-11-25T07:31:35;5.40;61.90
15705;DHT22;7952;48.396;12.806;2022-11-25T07:36:28;5.40;61.80
15705;DHT22;7952;48.396;12.806;2022-11-25T07:38:55;5.50;61.90
15705;DHT22;7952;48.396;12.806;2022-11-25T07:41:23;5.50;62.00
15705;DHT22;7952;48.396;12.806;2022-11-25T07:43:57;5.50;62.00
15705;DHT22;7952;48.396;12.806;2022-11-25T07:46:26;5.70;62.50
15705;DHT22;7952;48.396;12.806;2022-11-25T07:48:53;5.80;62.90
15705;DHT22;7952;48.396;12.806;2022-11-25T07:51:22;6.00;63.10
15705;DHT22;7952;48.396;12.806;2022-11-25T07:53:49;6.20;63.20
15705;DHT22;7952;48.396;12.806;2022-11-25T07:56:15;6.50;63.30
15705;DHT22;7952;48.396;12.806;2022-11-25T07:58:42;6.80;63.60
15705;DHT22;7952;48.396;12.806;2022-11-25T08:01:09;7.20;64.00
15705;DHT22;7952;48.396;12.806;2022-11-25T08:03:36;7.70;64.40
15705;DHT22;7952;48.396;12.806;2022-11-25T08:06:07;8.20;64.80
15705;DHT22;7952;48.396;12.806;2022-11-25T08:08:35;8.70;65.10
15705;DHT22;7952;48.396;12.806;2022-11-25T08:11:05;9.10;64.70
15705;DHT22;7952;48.396;12.806;2022-11-25T08:13:31;9.40;64.00
15705;DHT22;7952;48.396;12.806;2022-11-25T08:15:58;9.50;63.30
15705;DHT22;7952;48.396;12.806;2022-11-25T08:18:24;9.60;62.80
15705;DHT22;7952;48.396;12.806;2022-11-25T08:20:50;9.60;62.50
15705;DHT22;7952;48.396;12.806;2022-11-25T08:23:16;9.60;62.10
15705;DHT22;7952;48.396;12.806;2022-11-25T08:25:42;9.60;61.90
15705;DHT22;7952;48.396;12.806;2022-11-25T08:28:08;9.40;61.60
15705;DHT22;7952;48.396;12.806;2022-11-25T08:30:34;9.30;61.40
15705;DHT22;7952;48.396;12.806;2022-11-25T08:33:00;9.20;61.40
15705;DHT22;7952;48.396;12.806;2022-11-25T08:35:26;9.10;61.30
15705;DHT22;7952;48.396;12.806;2022-11-25T08:37:51;9.00;61.30
15705;DHT22;7952;48.396;12.806;2022-11-25T08:40:17;8.90;61.30
15705;DHT22;7952;48.396;12.806;2022-11-25T08:42:43;8.80;61.30
15705;DHT22;7952;48.396;12.806;2022-11-25T08:45:09;8.70;61.50
15705;DHT22;7952;48.396;12.806;2022-11-25T08:47:35;8.50;61.40
15705;DHT22;7952;48.396;12.806;2022-11-25T08:50:04;8.40;61.40
15705;DHT22;7952;48.396;12.806;2022-11-25T08:52:30;8.30;61.40
15705;DHT22;7952;48.396;12.806;2022-11-25T08:54:56;8.20;61.40
15705;DHT22;7952;48.396;12.806;2022-11-25T08:57:21;8.00;61.40
15705;DHT22;7952;48.396;12.806;2022-11-25T08:59:47;8.00;61.70
15705;DHT22;7952;48.396;12.806;2022-11-25T09:02:14;7.90;61.70
15705;DHT22;7952;48.396;12.806;2022-11-25T09:04:40;7.80;61.70
15705;DHT22;7952;48.396;12.806;2022-11-25T09:07:06;7.70;61.90
15705;DHT22;7952;48.396;12.806;2022-11-25T09:09:32;7.70;62.20
15705;DHT22;7952;48.396;12.806;2022-11-25T09:11:57;7.70;62.30
15705;DHT22;7952;48.396;12.806;2022-11-25T09:14:23;7.70;62.30
15705;DHT22;7952;48.396;12.806;2022-11-25T09:16:48;7.70;62.30
15705;DHT22;7952;48.396;12.806;2022-11-25T09:19:14;7.70;62.30
15705;DHT22;7952;48.396;12.806;2022-11-25T09:21:42;7.60;62.20
15705;DHT22;7952;48.396;12.806;2022-11-25T09:24:08;7.60;62.10
15705;DHT22;7952;48.396;12.806;2022-11-25T09:26:33;7.60;62.10
15705;DHT22;7952;48.396;12.806;2022-11-25T09:29:00;7.60;62.20
15705;DHT22;7952;48.396;12.806;2022-11-25T09:31:26;7.60;62.30
15705;DHT22;7952;48.396;12.806;2022-11-25T09:33:52;7.50;62.20
15705;DHT22;7952;48.396;12.806;2022-11-25T09:36:19;7.50;62.20
15705;DHT22;7952;48.396;12.806;2022-11-25T09:38:45;7.50;62.20
15705;DHT22;7952;48.396;12.806;2022-11-25T09:47:28;7.40;62.20
15705;DHT22;7952;48.396;12.806;2022-11-25T09:56:03;7.40;62.30
15705;DHT22;7952;48.396;12.806;2022-11-25T09:58:35;7.40;62.40
15705;DHT22;7952;48.396;12.806;2022-11-25T10:01:06;7.40;62.40
15705;DHT22;7952;48.396;12.806;2022-11-25T10:03:43;7.40;62.50
15705;DHT22;7952;48.396;12.806;2022-11-25T10:08:43;7.50;62.50
15705;DHT22;7952;48.396;12.806;2022-11-25T10:16:37;7.70;62.60
15705;DHT22;7952;48.396;12.806;2022-11-25T10:21:51;7.80;62.80
15705;DHT22;7952;48.396;12.806;2022-11-25T10:24:17;7.90;62.80
15705;DHT22;7952;48.396;12.806;2022-11-25T10:26:57;8.00;62.70
15705;DHT22;7952;48.396;12.806;2022-11-25T10:29:30;8.10;62.60
15705;DHT22;7952;48.396;12.806;2022-11-25T10:32:19;8.20;62.50
15705;DHT22;7952;48.396;12.806;2022-11-25T10:34:56;8.30;62.50
15705;DHT22;7952;48.396;12.806;2022-11-25T10:37:30;8.30;62.50
15705;DHT22;7952;48.396;12.806;2022-11-25T10:39:57;8.40;62.60
15705;DHT22;7952;48.396;12.806;2022-11-25T10:42:25;8.50;62.60
15705;DHT22;7952;48.396;12.806;2022-11-25T10:44:52;8.60;62.60
15705;DHT22;7952;48.396;12.806;2022-11-25T10:47:33;8.70;62.50
15705;DHT22;7952;48.396;12.806;2022-11-25T10:50:35;8.80;62.50
15705;DHT22;7952;48.396;12.806;2022-11-25T10:55:33;8.90;62.30
15705;DHT22;7952;48.396;12.806;2022-11-25T10:58:27;8.90;62.30
15705;DHT22;7952;48.396;12.806;2022-11-25T11:03:39;9.00;62.20
15705;DHT22;7952;48.396;12.806;2022-11-25T11:06:05;9.00;62.10
15705;DHT22;7952;48.396;12.806;2022-11-25T11:08:38;9.00;62.20
15705;DHT22;7952;48.396;12.806;2022-11-25T11:13:41;9.10;62.30
15705;DHT22;7952;48.396;12.806;2022-11-25T11:16:27;9.10;62.20
15705;DHT22;7952;48.396;12.806;2022-11-25T11:18:54;9.20;62.30
15705;DHT22;7952;48.396;12.806;2022-11-25T11:21:40;9.20;62.20
15705;DHT22;7952;48.396;12.806;2022-11-25T11:24:26;9.20;62.30
15705;DHT22;7952;48.396;12.806;2022-11-25T11:27:23;9.30;62.50
15705;DHT22;7952;48.396;12.806;2022-11-25T11:30:23;9.40;62.60
15705;DHT22;7952;48.396;12.806;2022-11-25T11:33:03;9.50;62.60
15705;DHT22;7952;48.396;12.806;2022-11-25T11:35:32;9.60;62.60
15705;DHT22;7952;48.396;12.806;2022-11-25T11:38:06;9.60;62.50
15705;DHT22;7952;48.396;12.806;2022-11-25T11:40:38;9.70;62.50
15705;DHT22;7952;48.396;12.806;2022-11-25T11:45:40;9.80;62.40
15705;DHT22;7952;48.396;12.806;2022-11-25T11:51:22;9.80;62.40
15705;DHT22;7952;48.396;12.806;2022-11-25T11:53:59;9.90;62.50
15705;DHT22;7952;48.396;12.806;2022-11-25T11:56:43;10.00;61.40
15705;DHT22;7952;48.396;12.806;2022-11-25T12:02:43;10.00;61.10
15705;DHT22;7952;48.396;12.806;2022-11-25T12:05:14;10.00;61.00
15705;DHT22;7952;48.396;12.806;2022-11-25T12:10:29;9.90;62.00
15705;DHT22;7952;48.396;12.806;2022-11-25T12:13:15;9.90;62.10
15705;DHT22;7952;48.396;12.806;2022-11-25T12:16:15;9.90;62.20
15705;DHT22;7952;48.396;12.806;2022-11-25T12:18:55;9.90;62.40
15705;DHT22;7952;48.396;12.806;2022-11-25T12:29:01;10.20;61.90
15705;DHT22;7952;48.396;12.806;2022-11-25T12:31:38;10.20;61.90
15705;DHT22;7952;48.396;12.806;2022-11-25T12:34:26;10.30;61.90
15705;DHT22;7952;48.396;12.806;2022-11-25T12:37:03;10.30;61.90
15705;DHT22;7952;48.396;12.806;2022-11-25T12:39:35;10.30;61.90
15705;DHT22;7952;48.396;12.806;2022-11-25T12:42:12;10.40;62.00
15705;DHT22;7952;48.396;12.806;2022-11-25T12:44:56;10.50;62.20
15705;DHT22;7952;48.396;12.806;2022-11-25T12:47:24;10.50;62.10
15705;DHT22;7952;48.396;12.806;2022-11-25T12:49:52;10.70;62.00
15705;DHT22;7952;48.396;12.806;2022-11-25T12:52:21;10.70;61.80
15705;DHT22;7952;48.396;12.806;2022-11-25T12:55:16;10.80;61.80
15705;DHT22;7952;48.396;12.806;2022-11-25T12:57:53;10.90;61.80
15705;DHT22;7952;48.396;12.806;2022-11-25T13:00:53;11.00;61.60
15705;DHT22;7952;48.396;12.806;2022-11-25T13:09:36;11.10;61.30
15705;DHT22;7952;48.396;12.806;2022-11-25T13:12:42;11.10;61.30
15705;DHT22;7952;48.396;12.806;2022-11-25T13:17:49;11.10;61.20
15705;DHT22;7952;48.396;12.806;2022-11-25T13:25:39;11.20;61.10
15705;DHT22;7952;48.396;12.806;2022-11-25T13:28:29;11.20;61.20
15705;DHT22;7952;48.396;12.806;2022-11-25T13:31:01;11.30;61.20
15705;DHT22;7952;48.396;12.806;2022-11-25T13:36:17;11.30;61.00
15705;DHT22;7952;48.396;12.806;2022-11-25T13:44:03;11.40;61.00
15705;DHT22;7952;48.396;12.806;2022-11-25T13:46:48;11.50;61.00
15705;DHT22;7952;48.396;12.806;2022-11-25T13:52:23;11.50;60.70
15705;DHT22;7952;48.396;12.806;2022-11-25T13:54:54;11.40;60.50
15705;DHT22;7952;48.396;12.806;2022-11-25T13:57:29;11.40;60.60
15705;DHT22;7952;48.396;12.806;2022-11-25T13:59:59;11.30;60.70
15705;DHT22;7952;48.396;12.806;2022-11-25T14:08:12;11.20;60.70
15705;DHT22;7952;48.396;12.806;2022-11-25T14:24:34;11.10;61.00
15705;DHT22;7952;48.396;12.806;2022-11-25T14:27:02;11.10;61.10
15705;DHT22;7952;48.396;12.806;2022-11-25T14:29:35;11.10;61.10
15705;DHT22;7952;48.396;12.806;2022-11-25T14:34:37;11.00;60.80
15705;DHT22;7952;48.396;12.806;2022-11-25T14:39:55;11.00;60.80
15705;DHT22;7952;48.396;12.806;2022-11-25T14:42:25;11.00;60.70
15705;DHT22;7952;48.396;12.806;2022-11-25T14:44:53;10.90;60.60
15705;DHT22;7952;48.396;12.806;2022-11-25T14:47:27;10.90;60.70
15705;DHT22;7952;48.396;12.806;2022-11-25T14:49:55;10.80;60.60
15705;DHT22;7952;48.396;12.806;2022-11-25T14:54:52;10.70;60.50
15705;DHT22;7952;48.396;12.806;2022-11-25T14:57:26;10.60;60.50
15705;DHT22;7952;48.396;12.806;2022-11-25T14:59:55;10.50;60.60
15705;DHT22;7952;48.396;12.806;2022-11-25T15:02:30;10.50;60.60
15705;DHT22;7952;48.396;12.806;2022-11-25T15:05:23;10.40;60.60
15705;DHT22;7952;48.396;12.806;2022-11-25T15:15:48;10.10;61.30
15705;DHT22;7952;48.396;12.806;2022-11-25T15:18:19;10.10;60.70
15705;DHT22;7952;48.396;12.806;2022-11-25T15:20:47;10.00;60.70
15705;DHT22;7952;48.396;12.806;2022-11-25T15:23:18;10.00;60.80
15705;DHT22;7952;48.396;12.806;2022-11-25T15:25:51;9.90;61.80
15705;DHT22;7952;48.396;12.806;2022-11-25T15:28:18;9.90;61.90
15705;DHT22;7952;48.396;12.806;2022-11-25T15:31:16;9.80;61.80
15705;DHT22;7952;48.396;12.806;2022-11-25T15:33:40;9.80;61.90
15705;DHT22;7952;48.396;12.806;2022-11-25T15:36:06;9.80;61.80
15705;DHT22;7952;48.396;12.806;2022-11-25T15:38:42;9.80;61.80
15705;DHT22;7952;48.396;12.806;2022-11-25T15:41:33;9.80;61.90
15705;DHT22;7952;48.396;12.806;2022-11-25T15:44:03;9.70;61.70
15705;DHT22;7952;48.396;12.806;2022-11-25T15:46:32;9.70;61.80
15705;DHT22;7952;48.396;12.806;2022-11-25T15:49:04;9.70;62.50
15705;DHT22;7952;48.396;12.806;2022-11-25T15:54:19;9.60;61.70
15705;DHT22;7952;48.396;12.806;2022-11-25T15:56:51;9.60;61.70
15705;DHT22;7952;48.396;12.806;2022-11-25T15:59:37;9.50;61.70
15705;DHT22;7952;48.396;12.806;2022-11-25T16:10:32;9.40;61.80
15705;DHT22;7952;48.396;12.806;2022-11-25T16:18:17;9.40;61.80
15705;DHT22;7952;48.396;12.806;2022-11-25T16:21:05;9.30;61.80
15705;DHT22;7952;48.396;12.806;2022-11-25T16:23:35;9.30;61.80
15705;DHT22;7952;48.396;12.806;2022-11-25T16:26:28;9.30;61.90
15705;DHT22;7952;48.396;12.806;2022-11-25T16:28:58;9.30;61.90
15705;DHT22;7952;48.396;12.806;2022-11-25T16:31:24;9.30;61.90
15705;DHT22;7952;48.396;12.806;2022-11-25T16:34:08;9.30;61.90
15705;DHT22;7952;48.396;12.806;2022-11-25T16:36:35;9.20;61.80
15705;DHT22;7952;48.396;12.806;2022-11-25T16:39:01;9.20;61.80
15705;DHT22;7952;48.396;12.806;2022-11-25T16:41:27;9.20;61.80
15705;DHT22;7952;48.396;12.806;2022-11-25T16:43:53;9.20;61.90
15705;DHT22;7952;48.396;12.806;2022-11-25T16:46:19;9.20;61.90
15705;DHT22;7952;48.396;12.806;2022-11-25T16:48:45;9.20;61.90
15705;DHT22;7952;48.396;12.806;2022-11-25T16:51:22;9.20;61.90
15705;DHT22;7952;48.396;12.806;2022-11-25T16:53:49;9.20;61.90
15705;DHT22;7952;48.396;12.806;2022-11-25T16:56:22;9.10;61.80
15705;DHT22;7952;48.396;12.806;2022-11-25T16:58:48;9.10;61.80
15705;DHT22;7952;48.396;12.806;2022-11-25T17:01:15;9.10;61.80
15705;DHT22;7952;48.396;12.806;2022-11-25T17:03:42;9.10;61.90
15705;DHT22;7952;48.396;12.806;2022-11-25T17:06:19;9.10;61.90
15705;DHT22;7952;48.396;12.806;2022-11-25T17:08:45;9.10;61.80
15705;DHT22;7952;48.396;12.806;2022-11-25T17:11:31;9.10;61.80
15705;DHT22;7952;48.396;12.806;2022-11-25T17:14:02;9.20;61.90
15705;DHT22;7952;48.396;12.806;2022-11-25T17:16:29;9.20;61.80
15705;DHT22;7952;48.396;12.806;2022-11-25T17:18:56;9.20;61.90
15705;DHT22;7952;48.396;12.806;2022-11-25T17:21:23;9.20;61.80
15705;DHT22;7952;48.396;12.806;2022-11-25T17:23:54;9.20;61.80
15705;DHT22;7952;48.396;12.806;2022-11-25T17:28:59;9.20;61.80
15705;DHT22;7952;48.396;12.806;2022-11-25T17:31:29;9.20;61.80
15705;DHT22;7952;48.396;12.806;2022-11-25T17:33:56;9.20;61.70
15705;DHT22;7952;48.396;12.806;2022-11-25T17:36:23;9.20;61.70
15705;DHT22;7952;48.396;12.806;2022-11-25T17:38:48;9.20;61.70
15705;DHT22;7952;48.396;12.806;2022-11-25T17:41:17;9.20;61.70
15705;DHT22;7952;48.396;12.806;2022-11-25T17:43:45;9.20;61.70
15705;DHT22;7952;48.396;12.806;2022-11-25T17:46:13;9.20;61.70
15705;DHT22;7952;48.396;12.806;2022-11-25T17:48:39;9.20;61.70
15705;DHT22;7952;48.396;12.806;2022-11-25T17:51:10;9.20;61.70
15705;DHT22;7952;48.396;12.806;2022-11-25T17:53:37;9.20;61.90
15705;DHT22;7952;48.396;12.806;2022-11-25T17:56:24;9.20;61.70
15705;DHT22;7952;48.396;12.806;2022-11-25T17:58:51;9.20;61.70
15705;DHT22;7952;48.396;12.806;2022-11-25T18:01:17;9.20;61.60
15705;DHT22;7952;48.396;12.806;2022-11-25T18:03:43;9.20;61.60
15705;DHT22;7952;48.396;12.806;2022-11-25T18:06:08;9.20;61.60
15705;DHT22;7952;48.396;12.806;2022-11-25T18:08:34;9.20;61.60
15705;DHT22;7952;48.396;12.806;2022-11-25T18:11:02;9.20;61.60
15705;DHT22;7952;48.396;12.806;2022-11-25T18:13:33;9.20;61.60
15705;DHT22;7952;48.396;12.806;2022-11-25T18:16:00;9.20;61.60
15705;DHT22;7952;48.396;12.806;2022-11-25T18:18:25;9.20;61.60
15705;DHT22;7952;48.396;12.806;2022-11-25T18:20:51;9.20;61.60